sensor_id;sensor_type;location;lat;lon;timestamp;pressure;altitude;pressure_sealevel;temperature;humidity
29331;BME280;16331;52.528;13.342;2023-04-19T00:00:34;157841.97;;;7.74;100.00
29331;BME280;16331;52.528;13.342;2023-04-19T00:03:00;157803.69;;;7.60;100.00
29331;BME280;16331;52.528;13.342;2023-04-19T00:05:27;157798.19;;;7.58;100.00
29331;BME280;16331;52.528;13.342;2023-04-19T00:07:53;157814.59;;;7.64;100.00
29331;BME280;16331;52.528;13.342;2023-04-19T00:10:20;157876.19;;;7.87;100.00
29331;BME280;16331;52.528;13.342;2023-04-19T00:12:46;157904.91;;;7.97;100.00
29331;BME280;16331;52.528;13.342;2023-04-19T00:15:14;157862.47;;;7.82;100.00
29331;BME280;16331;52.528;13.342;2023-04-19T00:17:40;157836.50;;;7.72;100.00
29331;BME280;16331;52.528;13.342;2023-04-19T00:20:07;157870.69;;;7.85;100.00
29331;BME280;16331;52.528;13.342;2023-04-19T00:22:35;157887.09;;;7.91;100.00
29331;BME280;16331;52.528;13.342;2023-04-19T00:25:02;157887.09;;;7.91;100.00
29331;BME280;16331;52.528;13.342;2023-04-19T00:27:28;157869.34;;;7.84;100.00
29331;BME280;16331;52.528;13.342;2023-04-19T00:29:54;157883.00;;;7.89;100.00
29331;BME280;16331;52.528;13.342;2023-04-19T00:32:22;157922.69;;;8.04;100.00
29331;BME280;16331;52.528;13.342;2023-04-19T00:34:48;157888.47;;;7.91;100.00
29331;BME280;16331;52.528;13.342;2023-04-19T00:37:15;157885.75;;;7.90;100.00
29331;BME280;16331;52.528;13.342;2023-04-19T00:39:41;157828.28;;;7.69;100.00
29331;BME280;16331;52.528;13.342;2023-04-19T00:42:07;157873.47;;;7.86;100.00
29331;BME280;16331;52.528;13.342;2023-04-19T00:44:33;157900.78;;;7.96;100.00
29331;BME280;16331;52.528;13.342;2023-04-19T00:46:59;157913.16;;;8.00;100.00
29331;BME280;16331;52.528;13.342;2023-04-19T00:49:26;157821.47;;;7.67;100.00
29331;BME280;16331;52.528;13.342;2023-04-19T00:51:53;157829.66;;;7.70;100.00
29331;BME280;16331;52.528;13.342;2023-04-19T00:54:19;157895.34;;;7.94;100.00
29331;BME280;16331;52.528;13.342;2023-04-19T00:56:46;157855.66;;;7.79;100.00
29331;BME280;16331;52.528;13.342;2023-04-19T00:59:14;157828.28;;;7.69;100.00
29331;BME280;16331;52.528;13.342;2023-04-19T01:01:40;157817.31;;;7.65;100.00
29331;BME280;16331;52.528;13.342;2023-04-19T01:04:06;157768.09;;;7.47;100.00
29331;BME280;16331;52.528;13.342;2023-04-19T01:06:35;157747.53;;;7.39;100.00
29331;BME280;16331;52.528;13.342;2023-04-19T01:09:01;157762.63;;;7.45;100.00
29331;BME280;16331;52.528;13.342;2023-04-19T01:11:28;157735.25;;;7.35;100.00
29331;BME280;16331;52.528;13.342;2023-04-19T01:13:55;157699.69;;;7.22;100.00
29331;BME280;16331;52.528;13.342;2023-04-19T01:16:28;157709.25;;;7.25;100.00
29331;BME280;16331;52.528;13.342;2023-04-19T01:18:54;157736.63;;;7.35;100.00
29331;BME280;16331;52.528;13.342;2023-04-19T01:21:21;157680.56;;;7.15;100.00
29331;BME280;16331;52.528;13.342;2023-04-19T01:23:47;157654.59;;;7.05;100.00
29331;BME280;16331;52.528;13.342;2023-04-19T01:26:13;157649.09;;;7.03;100.00
29331;BME280;16331;52.528;13.342;2023-04-19T01:28:40;157686.03;;;7.17;100.00
29331;BME280;16331;52.528;13.342;2023-04-19T01:31:06;157673.69;;;7.12;100.00
29331;BME280;16331;52.528;13.342;2023-04-19T01:33:32;157660.00;;;7.07;100.00
29331;BME280;16331;52.528;13.342;2023-04-19T01:35:58;157657.28;;;7.06;100.00
29331;BME280;16331;52.528;13.342;2023-04-19T01:38:24;157666.88;;;7.10;100.00
29331;BME280;16331;52.528;13.342;2023-04-19T01:40:52;157669.59;;;7.11;100.00
29331;BME280;16331;52.528;13.342;2023-04-19T01:43:18;157653.19;;;7.05;100.00
29331;BME280;16331;52.528;13.342;2023-04-19T01:45:44;157631.31;;;6.97;100.00
29331;BME280;16331;52.528;13.342;2023-04-19T01:48:11;157636.81;;;6.99;100.00
29331;BME280;16331;52.528;13.342;2023-04-19T01:50:37;157628.59;;;6.96;100.00
29331;BME280;16331;52.528;13.342;2023-04-19T01:53:03;157608.06;;;6.88;100.00
29331;BME280;16331;52.528;13.342;2023-04-19T01:55:29;157613.53;;;6.90;100.00
29331;BME280;16331;52.528;13.342;2023-04-19T01:57:57;157629.94;;;6.96;100.00
29331;BME280;16331;52.528;13.342;2023-04-19T02:00:24;157599.84;;;6.85;100.00
29331;BME280;16331;52.528;13.342;2023-04-19T02:02:51;157583.47;;;6.79;100.00
29331;BME280;16331;52.528;13.342;2023-04-19T02:05:17;157576.66;;;6.77;100.00
29331;BME280;16331;52.528;13.342;2023-04-19T02:07:43;157528.81;;;6.59;100.00
29331;BME280;16331;52.528;13.342;2023-04-19T02:10:10;157524.72;;;6.58;100.00
29331;BME280;16331;52.528;13.342;2023-04-19T02:12:37;157513.75;;;6.54;100.00
29331;BME280;16331;52.528;13.342;2023-04-19T02:15:04;157520.56;;;6.56;100.00
29331;BME280;16331;52.528;13.342;2023-04-19T02:17:31;157543.81;;;6.65;100.00
29331;BME280;16331;52.528;13.342;2023-04-19T02:19:57;157556.13;;;6.69;100.00
29331;BME280;16331;52.528;13.342;2023-04-19T02:22:24;157497.38;;;6.48;100.00
29331;BME280;16331;52.528;13.342;2023-04-19T02:24:50;157504.19;;;6.50;100.00
29331;BME280;16331;52.528;13.342;2023-04-19T02:27:18;157478.22;;;6.41;100.00
29331;BME280;16331;52.528;13.342;2023-04-19T02:29:44;157489.16;;;6.45;100.00
29331;BME280;16331;52.528;13.342;2023-04-19T02:32:12;157474.13;;;6.39;100.00
29331;BME280;16331;52.528;13.342;2023-04-19T02:34:38;157516.47;;;6.55;100.00
29331;BME280;16331;52.528;13.342;2023-04-19T02:37:04;157429.00;;;6.23;100.00
29331;BME280;16331;52.528;13.342;2023-04-19T02:39:31;157442.69;;;6.28;100.00
29331;BME280;16331;52.528;13.342;2023-04-19T02:41:57;157412.63;;;6.17;100.00
29331;BME280;16331;52.528;13.342;2023-04-19T02:44:24;157386.66;;;6.07;100.00
29331;BME280;16331;52.528;13.342;2023-04-19T02:46:51;157396.25;;;6.11;100.00
29331;BME280;16331;52.528;13.342;2023-04-19T02:49:19;157382.56;;;6.06;100.00
29331;BME280;16331;52.528;13.342;2023-04-19T02:51:45;157397.63;;;6.11;100.00
29331;BME280;16331;52.528;13.342;2023-04-19T02:54:12;157401.72;;;6.13;100.00
29331;BME280;16331;52.528;13.342;2023-04-19T02:56:39;157388.06;;;6.08;100.00
29331;BME280;16331;52.528;13.342;2023-04-19T02:59:07;157370.28;;;6.01;100.00
29331;BME280;16331;52.528;13.342;2023-04-19T03:01:34;157360.72;;;5.98;100.00
29331;BME280;16331;52.528;13.342;2023-04-19T03:04:03;157349.81;;;5.94;100.00
29331;BME280;16331;52.528;13.342;2023-04-19T03:06:29;157360.72;;;5.98;100.00
29331;BME280;16331;52.528;13.342;2023-04-19T03:08:55;157336.16;;;5.88;100.00
29331;BME280;16331;52.528;13.342;2023-04-19T03:11:21;157327.97;;;5.85;100.00
29331;BME280;16331;52.528;13.342;2023-04-19T03:13:47;157314.25;;;5.80;100.00
29331;BME280;16331;52.528;13.342;2023-04-19T03:16:13;157318.38;;;5.82;100.00
29331;BME280;16331;52.528;13.342;2023-04-19T03:18:39;157327.97;;;5.85;100.00
29331;BME280;16331;52.528;13.342;2023-04-19T03:21:06;157318.38;;;5.82;100.00
29331;BME280;16331;52.528;13.342;2023-04-19T03:23:34;157296.47;;;5.74;100.00
29331;BME280;16331;52.528;13.342;2023-04-19T03:26:00;157303.28;;;5.76;100.00
29331;BME280;16331;52.528;13.342;2023-04-19T03:28:27;157285.53;;;5.70;100.00
29331;BME280;16331;52.528;13.342;2023-04-19T03:30:53;157250.06;;;5.57;100.00
29331;BME280;16331;52.528;13.342;2023-04-19T03:33:19;157259.59;;;5.60;100.00
29331;BME280;16331;52.528;13.342;2023-04-19T03:35:45;157284.19;;;5.69;100.00
29331;BME280;16331;52.528;13.342;2023-04-19T03:38:11;157240.50;;;5.53;100.00
29331;BME280;16331;52.528;13.342;2023-04-19T03:40:37;157237.72;;;5.52;100.00
29331;BME280;16331;52.528;13.342;2023-04-19T03:43:04;157218.66;;;5.45;100.00
29331;BME280;16331;52.528;13.342;2023-04-19T03:45:30;157205.00;;;5.40;100.00
29331;BME280;16331;52.528;13.342;2023-04-19T03:47:58;157196.81;;;5.37;100.00
29331;BME280;16331;52.528;13.342;2023-04-19T03:50:24;157207.69;;;5.41;100.00
29331;BME280;16331;52.528;13.342;2023-04-19T03:52:50;157202.28;;;5.39;100.00
29331;BME280;16331;52.528;13.342;2023-04-19T03:55:17;157219.97;;;5.46;100.00
29331;BME280;16331;52.528;13.342;2023-04-19T03:57:45;157187.25;;;5.34;100.00
29331;BME280;16331;52.528;13.342;2023-04-19T04:00:11;157174.97;;;5.29;100.00
29331;BME280;16331;52.528;13.342;2023-04-19T04:02:38;157161.31;;;5.24;100.00
29331;BME280;16331;52.528;13.342;2023-04-19T04:05:05;157140.84;;;5.17;100.00
29331;BME280;16331;52.528;13.342;2023-04-19T04:07:32;157114.91;;;5.07;100.00
29331;BME280;16331;52.528;13.342;2023-04-19T04:09:58;157136.75;;;5.15;100.00
29331;BME280;16331;52.528;13.342;2023-04-19T04:12:25;157131.28;;;5.13;100.00
29331;BME280;16331;52.528;13.342;2023-04-19T04:14:51;157147.66;;;5.19;100.00
29331;BME280;16331;52.528;13.342;2023-04-19T04:17:17;157136.75;;;5.15;100.00
29331;BME280;16331;52.528;13.342;2023-04-19T04:19:43;157114.91;;;5.07;100.00
29331;BME280;16331;52.528;13.342;2023-04-19T04:22:09;157095.78;;;5.00;100.00
29331;BME280;16331;52.528;13.342;2023-04-19T04:24:39;157117.63;;;5.08;100.00
29331;BME280;16331;52.528;13.342;2023-04-19T04:27:06;157084.84;;;4.96;100.00
29331;BME280;16331;52.528;13.342;2023-04-19T04:29:35;157124.44;;;5.11;100.00
29331;BME280;16331;52.528;13.342;2023-04-19T04:32:06;157108.06;;;5.05;100.00
29331;BME280;16331;52.528;13.342;2023-04-19T04:34:35;157114.91;;;5.07;100.00
29331;BME280;16331;52.528;13.342;2023-04-19T04:37:02;157117.63;;;5.08;100.00
29331;BME280;16331;52.528;13.342;2023-04-19T04:39:29;157114.91;;;5.07;100.00
29331;BME280;16331;52.528;13.342;2023-04-19T04:41:55;157170.88;;;5.28;100.00
29331;BME280;16331;52.528;13.342;2023-04-19T04:44:24;157173.56;;;5.29;100.00
29331;BME280;16331;52.528;13.342;2023-04-19T04:46:51;157168.09;;;5.27;100.00
29331;BME280;16331;52.528;13.342;2023-04-19T04:49:17;157151.75;;;5.21;100.00
29331;BME280;16331;52.528;13.342;2023-04-19T04:51:44;157153.13;;;5.21;100.00
29331;BME280;16331;52.528;13.342;2023-04-19T04:54:10;157154.44;;;5.22;100.00
29331;BME280;16331;52.528;13.342;2023-04-19T04:56:37;157202.28;;;5.39;100.00
29331;BME280;16331;52.528;13.342;2023-04-19T04:59:03;157155.81;;;5.22;100.00
29331;BME280;16331;52.528;13.342;2023-04-19T05:01:31;157183.16;;;5.32;100.00
29331;BME280;16331;52.528;13.342;2023-04-19T05:03:57;157169.50;;;5.27;100.00
29331;BME280;16331;52.528;13.342;2023-04-19T05:06:23;157188.63;;;5.34;100.00
29331;BME280;16331;52.528;13.342;2023-04-19T05:08:49;157202.28;;;5.39;100.00
29331;BME280;16331;52.528;13.342;2023-04-19T05:11:16;157254.16;;;5.58;100.00
29331;BME280;16331;52.528;13.342;2023-04-19T05:13:42;157299.19;;;5.75;100.00
29331;BME280;16331;52.528;13.342;2023-04-19T05:16:08;157308.75;;;5.78;100.00
29331;BME280;16331;52.528;13.342;2023-04-19T05:18:34;157293.75;;;5.73;100.00
29331;BME280;16331;52.528;13.342;2023-04-19T05:21:01;157303.28;;;5.76;100.00
29331;BME280;16331;52.528;13.342;2023-04-19T05:23:27;157310.16;;;5.79;100.00
29331;BME280;16331;52.528;13.342;2023-04-19T05:25:53;157337.47;;;5.89;100.00
29331;BME280;16331;52.528;13.342;2023-04-19T05:28:20;157308.75;;;5.78;100.00
29331;BME280;16331;52.528;13.342;2023-04-19T05:30:46;157401.72;;;6.13;100.00
29331;BME280;16331;52.528;13.342;2023-04-19T05:33:14;157532.91;;;6.61;100.00
29331;BME280;16331;52.528;13.342;2023-04-19T05:35:40;157560.22;;;6.71;100.00
29331;BME280;16331;52.528;13.342;2023-04-19T05:38:06;157475.50;;;6.40;100.00
29331;BME280;16331;52.528;13.342;2023-04-19T05:40:32;157426.28;;;6.22;100.00
29331;BME280;16331;52.528;13.342;2023-04-19T05:42:58;157456.34;;;6.33;100.00
29331;BME280;16331;52.528;13.342;2023-04-19T05:45:25;157463.22;;;6.35;100.00
29331;BME280;16331;52.528;13.342;2023-04-19T05:47:51;157418.09;;;6.19;100.00
29331;BME280;16331;52.528;13.342;2023-04-19T05:50:19;157433.16;;;6.24;100.00
29331;BME280;16331;52.528;13.342;2023-04-19T05:52:45;157491.88;;;6.46;100.00
29331;BME280;16331;52.528;13.342;2023-04-19T05:55:12;157511.03;;;6.53;100.00
29331;BME280;16331;52.528;13.342;2023-04-19T05:57:38;157509.66;;;6.52;100.00
29331;BME280;16331;52.528;13.342;2023-04-19T06:00:05;157543.81;;;6.65;100.00
29331;BME280;16331;52.528;13.342;2023-04-19T06:02:33;157587.56;;;6.81;100.00
29331;BME280;16331;52.528;13.342;2023-04-19T06:05:00;157580.75;;;6.78;100.00
29331;BME280;16331;52.528;13.342;2023-04-19T06:07:29;157590.28;;;6.82;100.00
29331;BME280;16331;52.528;13.342;2023-04-19T06:09:56;157595.75;;;6.84;100.00
29331;BME280;16331;52.528;13.342;2023-04-19T06:12:22;157631.31;;;6.97;100.00
29331;BME280;16331;52.528;13.342;2023-04-19T06:14:48;157597.16;;;6.84;100.00
29331;BME280;16331;52.528;13.342;2023-04-19T06:17:16;157675.06;;;7.13;100.00
29331;BME280;16331;52.528;13.342;2023-04-19T06:19:43;157721.56;;;7.30;100.00
29331;BME280;16331;52.528;13.342;2023-04-19T06:22:09;157796.81;;;7.58;100.00
29331;BME280;16331;52.528;13.342;2023-04-19T06:24:36;157754.41;;;7.42;100.00
29331;BME280;16331;52.528;13.342;2023-04-19T06:27:02;157761.22;;;7.45;100.00
29331;BME280;16331;52.528;13.342;2023-04-19T06:29:28;157839.19;;;7.73;100.00
29331;BME280;16331;52.528;13.342;2023-04-19T06:31:54;157866.59;;;7.83;100.00
29331;BME280;16331;52.528;13.342;2023-04-19T06:34:20;157900.78;;;7.96;100.00
29331;BME280;16331;52.528;13.342;2023-04-19T06:36:46;157918.59;;;8.02;100.00
29331;BME280;16331;52.528;13.342;2023-04-19T06:39:15;157921.34;;;8.03;100.00
29331;BME280;16331;52.528;13.342;2023-04-19T06:41:44;157915.88;;;8.01;100.00
29331;BME280;16331;52.528;13.342;2023-04-19T06:44:10;157866.59;;;7.83;100.00
29331;BME280;16331;52.528;13.342;2023-04-19T06:46:36;157881.66;;;7.89;100.00
29331;BME280;16331;52.528;13.342;2023-04-19T06:49:02;157913.16;;;8.00;100.00
29331;BME280;16331;52.528;13.342;2023-04-19T06:51:29;157945.97;;;8.12;100.00
29331;BME280;16331;52.528;13.342;2023-04-19T06:53:55;157965.16;;;8.19;100.00
29331;BME280;16331;52.528;13.342;2023-04-19T06:56:40;157985.72;;;8.27;100.00
29331;BME280;16331;52.528;13.342;2023-04-19T06:59:13;158040.47;;;8.47;100.00
29331;BME280;16331;52.528;13.342;2023-04-19T07:01:39;158071.97;;;8.58;100.00
29331;BME280;16331;52.528;13.342;2023-04-19T07:04:06;158124.00;;;8.77;100.00
29331;BME280;16331;52.528;13.342;2023-04-19T07:06:36;158197.97;;;9.05;100.00
29331;BME280;16331;52.528;13.342;2023-04-19T07:09:05;158284.34;;;9.36;100.00
29331;BME280;16331;52.528;13.342;2023-04-19T07:11:32;158302.09;;;9.43;100.00
29331;BME280;16331;52.528;13.342;2023-04-19T07:13:58;158304.88;;;9.44;100.00
29331;BME280;16331;52.528;13.342;2023-04-19T07:16:28;158299.38;;;9.42;100.00
29331;BME280;16331;52.528;13.342;2023-04-19T07:18:54;158344.63;;;9.58;100.00
29331;BME280;16331;52.528;13.342;2023-04-19T07:21:20;158326.81;;;9.52;100.00
29331;BME280;16331;52.528;13.342;2023-04-19T07:23:49;158373.41;;;9.69;100.00
29331;BME280;16331;52.528;13.342;2023-04-19T07:26:15;158372.00;;;9.68;100.00
29331;BME280;16331;52.528;13.342;2023-04-19T07:28:46;158356.94;;;9.63;100.00
29331;BME280;16331;52.528;13.342;2023-04-19T07:31:19;158395.31;;;9.77;100.00
29331;BME280;16331;52.528;13.342;2023-04-19T07:33:46;158472.13;;;10.05;100.00
29331;BME280;16331;52.528;13.342;2023-04-19T07:36:12;158452.91;;;9.98;100.00
29331;BME280;16331;52.528;13.342;2023-04-19T07:38:39;158507.78;;;10.18;100.00
29331;BME280;16331;52.528;13.342;2023-04-19T07:41:05;158444.69;;;9.95;100.00
29331;BME280;16331;52.528;13.342;2023-04-19T07:43:32;158561.28;;;10.38;100.00
29331;BME280;16331;52.528;13.342;2023-04-19T07:46:00;158634.03;;;10.64;100.00
29331;BME280;16331;52.528;13.342;2023-04-19T07:48:27;158631.25;;;10.63;100.00
29331;BME280;16331;52.528;13.342;2023-04-19T07:50:54;158569.53;;;10.41;100.00
29331;BME280;16331;52.528;13.342;2023-04-19T07:53:21;158603.88;;;10.53;100.00
29331;BME280;16331;52.528;13.342;2023-04-19T07:55:47;158613.41;;;10.57;100.00
29331;BME280;16331;52.528;13.342;2023-04-19T07:58:13;158665.56;;;10.76;99.78
29331;BME280;16331;52.528;13.342;2023-04-19T08:00:42;158710.84;;;10.92;97.53
29331;BME280;16331;52.528;13.342;2023-04-19T08:03:11;158676.56;;;10.80;96.90
29331;BME280;16331;52.528;13.342;2023-04-19T08:05:37;158627.16;;;10.62;97.03
29331;BME280;16331;52.528;13.342;2023-04-19T08:08:05;158690.28;;;10.85;97.04
29331;BME280;16331;52.528;13.342;2023-04-19T08:10:31;158761.63;;;11.11;95.63
29331;BME280;16331;52.528;13.342;2023-04-19T08:12:57;158848.13;;;11.42;93.13
29331;BME280;16331;52.528;13.342;2023-04-19T08:15:23;158919.56;;;11.68;90.29
29331;BME280;16331;52.528;13.342;2023-04-19T08:17:49;158963.50;;;11.85;82.88
29331;BME280;16331;52.528;13.342;2023-04-19T08:20:16;158916.81;;;11.68;84.81
29331;BME280;16331;52.528;13.342;2023-04-19T08:22:42;158878.34;;;11.53;81.71
29331;BME280;16331;52.528;13.342;2023-04-19T08:25:09;158988.25;;;11.94;81.35
29331;BME280;16331;52.528;13.342;2023-04-19T08:27:35;158988.25;;;11.94;77.85
29331;BME280;16331;52.528;13.342;2023-04-19T08:30:02;158986.88;;;11.93;76.89
29331;BME280;16331;52.528;13.342;2023-04-19T08:32:28;158956.66;;;11.82;76.42
29331;BME280;16331;52.528;13.342;2023-04-19T08:34:54;158947.03;;;11.79;75.99
29331;BME280;16331;52.528;13.342;2023-04-19T08:37:22;158973.13;;;11.88;74.96
29331;BME280;16331;52.528;13.342;2023-04-19T08:39:49;159026.72;;;12.08;75.22
29331;BME280;16331;52.528;13.342;2023-04-19T08:42:15;158941.53;;;11.77;75.18
29331;BME280;16331;52.528;13.342;2023-04-19T08:44:42;158929.19;;;11.72;77.46
29331;BME280;16331;52.528;13.342;2023-04-19T08:47:10;158947.03;;;11.79;76.39
29331;BME280;16331;52.528;13.342;2023-04-19T08:49:39;159007.47;;;12.01;76.71
29331;BME280;16331;52.528;13.342;2023-04-19T08:52:06;158989.59;;;11.94;75.87
29331;BME280;16331;52.528;13.342;2023-04-19T08:54:35;158991.00;;;11.95;76.37
29331;BME280;16331;52.528;13.342;2023-04-19T08:57:01;158971.78;;;11.88;76.44
29331;BME280;16331;52.528;13.342;2023-04-19T08:59:29;159045.97;;;12.15;75.31
29331;BME280;16331;52.528;13.342;2023-04-19T09:01:59;159121.50;;;12.42;74.50
29331;BME280;16331;52.528;13.342;2023-04-19T09:04:32;159136.63;;;12.48;74.12
29331;BME280;16331;52.528;13.342;2023-04-19T09:06:58;159034.94;;;12.11;73.40
29331;BME280;16331;52.528;13.342;2023-04-19T09:09:27;159059.66;;;12.20;74.44
29331;BME280;16331;52.528;13.342;2023-04-19T09:11:55;159043.19;;;12.14;72.34
29331;BME280;16331;52.528;13.342;2023-04-19T09:14:24;159054.19;;;12.18;71.07
29331;BME280;16331;52.528;13.342;2023-04-19T09:16:50;159161.34;;;12.57;69.88
29331;BME280;16331;52.528;13.342;2023-04-19T09:19:20;159192.97;;;12.68;70.68
29331;BME280;16331;52.528;13.342;2023-04-19T09:21:46;159296.16;;;13.06;67.71
29331;BME280;16331;52.528;13.342;2023-04-19T09:24:16;159250.72;;;12.89;67.14
29331;BME280;16331;52.528;13.342;2023-04-19T09:26:53;159216.38;;;12.77;67.88
29331;BME280;16331;52.528;13.342;2023-04-19T09:29:20;159260.34;;;12.93;67.13
29331;BME280;16331;52.528;13.342;2023-04-19T09:31:57;159122.88;;;12.43;66.16
29331;BME280;16331;52.528;13.342;2023-04-19T09:34:24;159109.16;;;12.38;65.02
29331;BME280;16331;52.528;13.342;2023-04-19T09:36:54;159219.09;;;12.78;63.83
29331;BME280;16331;52.528;13.342;2023-04-19T09:39:29;159344.28;;;13.24;61.40
29331;BME280;16331;52.528;13.342;2023-04-19T09:41:57;159364.91;;;13.31;59.88
29331;BME280;16331;52.528;13.342;2023-04-19T09:44:25;159345.63;;;13.24;60.50
29331;BME280;16331;52.528;13.342;2023-04-19T09:46:55;159220.47;;;12.78;60.41
29331;BME280;16331;52.528;13.342;2023-04-19T09:49:24;159263.09;;;12.94;61.20
29331;BME280;16331;52.528;13.342;2023-04-19T09:51:55;159286.53;;;13.02;59.99
29331;BME280;16331;52.528;13.342;2023-04-19T09:54:25;159250.72;;;12.89;60.39
29331;BME280;16331;52.528;13.342;2023-04-19T09:56:54;159100.91;;;12.35;63.93
29331;BME280;16331;52.528;13.342;2023-04-19T09:59:21;159098.19;;;12.34;64.37
29331;BME280;16331;52.528;13.342;2023-04-19T10:01:54;159224.59;;;12.80;62.28
29331;BME280;16331;52.528;13.342;2023-04-19T10:04:21;159221.81;;;12.79;61.50
29331;BME280;16331;52.528;13.342;2023-04-19T10:06:49;159290.66;;;13.04;62.08
29331;BME280;16331;52.528;13.342;2023-04-19T10:09:18;159265.81;;;12.95;60.40
29331;BME280;16331;52.528;13.342;2023-04-19T10:11:49;159349.75;;;13.26;59.45
29331;BME280;16331;52.528;13.342;2023-04-19T10:14:23;159481.81;;;13.74;57.59
29331;BME280;16331;52.528;13.342;2023-04-19T10:16:50;159598.81;;;14.16;55.75
29331;BME280;16331;52.528;13.342;2023-04-19T10:19:18;159686.91;;;14.48;54.95
29331;BME280;16331;52.528;13.342;2023-04-19T10:21:47;159699.34;;;14.53;53.73
29331;BME280;16331;52.528;13.342;2023-04-19T10:24:17;159697.94;;;14.52;53.72
29331;BME280;16331;52.528;13.342;2023-04-19T10:27:08;159569.88;;;14.06;54.13
29331;BME280;16331;52.528;13.342;2023-04-19T10:32:27;159653.91;;;14.36;53.45
29331;BME280;16331;52.528;13.342;2023-04-19T10:35:01;159596.03;;;14.15;53.96
29331;BME280;16331;52.528;13.342;2023-04-19T10:37:31;159558.91;;;14.02;54.57
29331;BME280;16331;52.528;13.342;2023-04-19T10:39:57;159492.84;;;13.78;54.25
29331;BME280;16331;52.528;13.342;2023-04-19T10:42:23;159378.66;;;13.36;56.92
29331;BME280;16331;52.528;13.342;2023-04-19T10:45:30;159415.78;;;13.50;57.53
29331;BME280;16331;52.528;13.342;2023-04-19T10:47:56;159571.28;;;14.06;55.48
29331;BME280;16331;52.528;13.342;2023-04-19T10:50:23;159408.91;;;13.47;56.12
29331;BME280;16331;52.528;13.342;2023-04-19T10:52:51;159469.44;;;13.69;56.46
29331;BME280;16331;52.528;13.342;2023-04-19T10:55:21;159527.22;;;13.90;55.61
29331;BME280;16331;52.528;13.342;2023-04-19T10:58:04;159518.97;;;13.87;54.85
29331;BME280;16331;52.528;13.342;2023-04-19T11:00:31;159560.22;;;14.02;54.61
29331;BME280;16331;52.528;13.342;2023-04-19T11:03:50;159758.53;;;14.75;53.18
29331;BME280;16331;52.528;13.342;2023-04-19T11:06:17;159838.41;;;15.04;50.52
29331;BME280;16331;52.528;13.342;2023-04-19T11:08:44;160078.19;;;15.91;48.88
29331;BME280;16331;52.528;13.342;2023-04-19T11:11:12;159959.66;;;15.48;49.49
29331;BME280;16331;52.528;13.342;2023-04-19T11:13:43;159934.88;;;15.39;48.24
29331;BME280;16331;52.528;13.342;2023-04-19T11:16:10;160145.75;;;16.16;47.57
29331;BME280;16331;52.528;13.342;2023-04-19T11:18:37;160370.63;;;16.97;45.51
29331;BME280;16331;52.528;13.342;2023-04-19T11:21:03;160189.88;;;16.32;45.77
29331;BME280;16331;52.528;13.342;2023-04-19T11:23:31;160120.97;;;16.07;46.14
29331;BME280;16331;52.528;13.342;2023-04-19T11:26:01;160305.81;;;16.74;45.19
29331;BME280;16331;52.528;13.342;2023-04-19T11:28:27;160297.53;;;16.71;46.05
29331;BME280;16331;52.528;13.342;2023-04-19T11:30:54;160194.00;;;16.33;46.47
29331;BME280;16331;52.528;13.342;2023-04-19T11:33:21;159911.41;;;15.30;48.54
29331;BME280;16331;52.528;13.342;2023-04-19T11:35:50;159557.50;;;14.01;52.44
29331;BME280;16331;52.528;13.342;2023-04-19T11:38:18;159484.59;;;13.75;56.31
29331;BME280;16331;52.528;13.342;2023-04-19T11:40:44;159483.19;;;13.74;55.96
29331;BME280;16331;52.528;13.342;2023-04-19T11:43:10;159743.41;;;14.69;53.60
29331;BME280;16331;52.528;13.342;2023-04-19T11:45:38;159976.25;;;15.54;50.12
29331;BME280;16331;52.528;13.342;2023-04-19T11:48:05;159974.84;;;15.53;50.08
29331;BME280;16331;52.528;13.342;2023-04-19T11:50:40;159835.69;;;15.03;52.01
29331;BME280;16331;52.528;13.342;2023-04-19T11:53:17;159977.59;;;15.54;51.18
29331;BME280;16331;52.528;13.342;2023-04-19T11:56:04;159576.78;;;14.08;52.69
29331;BME280;16331;52.528;13.342;2023-04-19T11:58:43;159542.34;;;13.96;52.76
29331;BME280;16331;52.528;13.342;2023-04-19T12:01:15;159696.56;;;14.52;52.63
29331;BME280;16331;52.528;13.342;2023-04-19T12:03:45;159792.94;;;14.87;51.74
29331;BME280;16331;52.528;13.342;2023-04-19T12:06:25;159762.66;;;14.76;50.87
29331;BME280;16331;52.528;13.342;2023-04-19T12:08:53;159779.16;;;14.82;50.84
29331;BME280;16331;52.528;13.342;2023-04-19T12:11:24;159658.03;;;14.38;51.69
29331;BME280;16331;52.528;13.342;2023-04-19T12:14:15;159750.25;;;14.72;50.30
29331;BME280;16331;52.528;13.342;2023-04-19T12:16:43;159682.78;;;14.47;51.31
29331;BME280;16331;52.528;13.342;2023-04-19T12:19:13;159721.38;;;14.61;50.65
29331;BME280;16331;52.528;13.342;2023-04-19T12:21:40;159958.34;;;15.47;48.84
29331;BME280;16331;52.528;13.342;2023-04-19T12:24:06;159755.78;;;14.74;49.29
29331;BME280;16331;52.528;13.342;2023-04-19T12:26:34;159753.00;;;14.73;51.62
29331;BME280;16331;52.528;13.342;2023-04-19T12:29:01;159878.38;;;15.18;49.52
29331;BME280;16331;52.528;13.342;2023-04-19T12:31:29;159758.53;;;14.75;50.92
29331;BME280;16331;52.528;13.342;2023-04-19T12:33:57;159751.66;;;14.72;52.32
29331;BME280;16331;52.528;13.342;2023-04-19T12:36:24;159689.69;;;14.49;51.71
29331;BME280;16331;52.528;13.342;2023-04-19T12:38:50;159692.44;;;14.50;52.10
29331;BME280;16331;52.528;13.342;2023-04-19T12:41:16;159636.00;;;14.30;52.40
29331;BME280;16331;52.528;13.342;2023-04-19T12:43:44;159703.47;;;14.55;51.95
29331;BME280;16331;52.528;13.342;2023-04-19T12:46:10;159711.72;;;14.58;53.54